Time;durP1;ratioP1;P1;durP2;ratioP2;P2;SDS_P1;SDS_P2;PMS_P1;PMS_P2;Temp;Humidity;BMP_temperature;BMP_pressure;BME280_temperature;BME280_humidity;BME280_pressure;Samples;Min_cycle;Max_cycle;Signal;HPM_P1;HPM_P2
2022/09/02 00:02:16;;;;;;;11.88;11.02;;;;;;;20.93;62.57;100405.47;5063194;28;20183;-85
2022/09/02 00:04:43;;;;;;;11.43;10.70;;;;;;;20.90;62.36;100417.53;5086204;28;20037;-85
2022/09/02 00:07:10;;;;;;;11.63;10.95;;;;;;;20.76;62.52;100385.84;5073240;28;20551;-87
2022/09/02 00:09:39;;;;;;;11.18;10.57;;;;;;;21.01;62.64;100427.25;5068367;28;20076;-86
2022/09/02 00:12:07;;;;;;;11.13;10.43;;;;;;;21.08;62.54;100428.66;5067261;28;20078;-86
2022/09/02 00:14:37;;;;;;;11.20;10.48;;;;;;;20.92;62.41;100418.03;5065935;28;20078;-85
2022/09/02 00:17:04;;;;;;;11.93;11.00;;;;;;;20.91;62.24;100419.19;5065927;28;20143;-87
2022/09/02 00:19:31;;;;;;;12.13;11.23;;;;;;;21.01;62.33;100420.75;5065380;28;20072;-86
2022/09/02 00:22:00;;;;;;;10.90;10.15;;;;;;;20.80;62.17;100395.31;5066119;28;20135;-87
2022/09/02 00:24:26;;;;;;;10.73;9.95;;;;;;;20.91;62.45;100424.88;5059735;28;20676;-86
2022/09/02 00:26:53;;;;;;;11.82;10.93;;;;;;;20.94;62.63;100435.50;5064911;28;20189;-87
2022/09/02 00:29:23;;;;;;;10.88;10.27;;;;;;;20.96;62.46;100429.50;5067136;28;20052;-85
2022/09/02 00:31:50;;;;;;;12.25;11.50;;;;;;;20.86;62.77;100418.63;5066699;28;20068;-84
2022/09/02 00:34:17;;;;;;;10.90;10.30;;;;;;;20.98;62.95;100430.78;5065615;28;20476;-83
2022/09/02 00:36:44;;;;;;;10.38;9.77;;;;;;;20.82;63.16;100390.13;5064585;28;20079;-83
2022/09/02 00:39:11;;;;;;;11.13;10.32;;;;;;;21.02;63.20;100428.06;5061572;28;20048;-85
2022/09/02 00:41:40;;;;;;;10.88;10.25;;;;;;;21.00;63.45;100417.06;5064391;28;20040;-85
2022/09/02 00:44:10;;;;;;;11.32;10.70;;;;;;;20.95;63.54;100407.97;5059658;28;20128;-85
2022/09/02 00:46:37;;;;;;;10.40;9.70;;;;;;;20.81;63.78;100388.44;5059213;28;20061;-86
2022/09/02 00:49:16;;;;;;;12.55;11.82;;;;;;;21.08;63.63;100417.31;5065434;28;20040;-84
2022/09/02 00:51:49;;;;;;;10.52;9.93;;;;;;;20.98;63.83;100393.88;5056714;28;20048;-84
2022/09/02 00:54:18;;;;;;;10.20;9.60;;;;;;;21.12;63.88;100419.06;5068898;28;20112;-84
2022/09/02 00:56:46;;;;;;;;;;;;;;;20.96;63.95;100415.31;5059038;28;20490;-83
2022/09/02 00:59:20;;;;;;;11.07;10.48;;;;;;;20.96;63.64;100396.25;5068246;28;20450;-83
2022/09/02 01:01:47;;;;;;;10.60;10.00;;;;;;;21.11;63.86;100420.25;5067702;28;20160;-83
2022/09/02 01:04:16;;;;;;;11.35;10.55;;;;;;;21.04;63.99;100412.34;5070350;28;20528;-83
2022/09/02 01:06:43;;;;;;;11.00;10.30;;;;;;;20.98;64.03;100391.03;5069679;28;20159;-84
2022/09/02 01:09:13;;;;;;;12.00;11.13;;;;;;;21.13;63.78;100408.53;5067439;28;20408;-84
2022/09/02 01:11:53;;;;;;;11.80;11.10;;;;;;;21.09;63.74;100405.59;5072602;28;20134;-83
2022/09/02 01:14:21;;;;;;;11.48;10.73;;;;;;;20.92;63.90;100380.28;5067545;28;20075;-85
2022/09/02 01:16:54;;;;;;;11.93;11.02;;;;;;;21.15;63.76;100406.19;5066665;28;20055;-83
2022/09/02 01:19:27;;;;;;;12.15;11.25;;;;;;;21.06;63.98;100369.41;5068295;28;20135;-84
2022/09/02 01:21:55;;;;;;;12.02;11.32;;;;;;;21.25;64.21;100402.88;5063755;28;20135;-85
2022/09/02 01:24:27;;;;;;;12.47;11.67;;;;;;;21.22;63.86;100395.06;5065078;28;20481;-85
2022/09/02 01:26:56;;;;;;;12.15;11.27;;;;;;;21.13;64.10;100385.81;5070145;28;20657;-84
2022/09/02 01:29:25;;;;;;;12.05;11.15;;;;;;;21.21;63.96;100396.25;5066825;28;20127;-84
2022/09/02 01:31:52;;;;;;;12.90;12.00;;;;;;;21.11;64.03;100382.53;5068853;28;20095;-84
2022/09/02 01:34:20;;;;;;;13.10;12.05;;;;;;;21.14;64.22;100364.78;5065300;28;20433;-82
2022/09/02 01:36:47;;;;;;;12.30;11.45;;;;;;;21.24;63.90;100393.53;5067861;28;20049;-84
2022/09/02 01:39:14;;;;;;;14.95;11.90;;;;;;;21.04;64.05;100361.22;5066945;28;20164;-84
2022/09/02 01:41:40;;;;;;;12.23;11.30;;;;;;;21.13;64.02;100388.66;5069600;28;20135;-85
2022/09/02 01:44:09;;;;;;;12.18;11.13;;;;;;;21.22;63.92;100390.19;5048000;28;20080;-85
2022/09/02 01:46:36;;;;;;;12.40;11.30;;;;;;;21.22;64.25;100395.06;5070102;28;20144;-85
2022/09/02 01:49:04;;;;;;;12.02;11.23;;;;;;;21.05;64.12;100374.22;5060914;28;20136;-84
2022/09/02 01:51:30;;;;;;;11.75;10.85;;;;;;;21.17;64.25;100396.13;5070464;28;20118;-84
2022/09/02 01:53:57;;;;;;;12.18;11.27;;;;;;;21.08;64.09;100380.41;5068855;28;20617;-86
2022/09/02 01:56:24;;;;;;;13.85;12.63;;;;;;;21.07;64.23;100365.38;5068387;28;20155;-85
2022/09/02 01:58:51;;;;;;;13.82;12.73;;;;;;;21.09;64.15;100376.38;5064139;28;20052;-83
2022/09/02 02:01:18;;;;;;;14.18;12.88;;;;;;;21.13;64.19;100386.69;5069929;28;20139;-83
2022/09/02 02:03:46;;;;;;;14.00;12.73;;;;;;;21.11;64.20;100377.69;5077386;28;20059;-84
2022/09/02 02:06:16;;;;;;;14.25;12.95;;;;;;;21.05;64.14;100364.91;5065998;28;20060;-83
2022/09/02 02:08:43;;;;;;;14.50;13.13;;;;;;;21.21;64.36;100387.72;5063318;28;20057;-84
2022/09/02 02:11:11;;;;;;;13.30;12.18;;;;;;;21.25;64.23;100392.31;5066777;28;20071;-84
2022/09/02 02:13:38;;;;;;;12.85;11.77;;;;;;;21.15;64.30;100375.78;5060569;28;20420;-84
2022/09/02 02:16:05;;;;;;;13.02;11.93;;;;;;;21.20;64.30;100369.88;5070891;28;20052;-83
2022/09/02 02:18:32;;;;;;;12.70;11.60;;;;;;;21.22;64.46;100376.00;5049033;28;20059;-84
2022/09/02 02:20:59;;;;;;;11.65;10.75;;;;;;;21.16;64.66;100368.06;5065560;28;20119;-86
2022/09/02 02:23:26;;;;;;;12.50;11.43;;;;;;;21.24;64.40;100379.31;5075204;28;20128;-83
2022/09/02 02:25:53;;;;;;;12.07;11.13;;;;;;;21.33;64.43;100390.53;5064939;28;20163;-83
2022/09/02 02:28:20;;;;;;;12.45;11.45;;;;;;;21.19;64.40;100362.50;5070917;28;20080;-82
2022/09/02 02:30:48;;;;;;;12.15;11.10;;;;;;;21.13;64.51;100363.09;5071624;28;20128;-83
2022/09/02 02:33:14;;;;;;;11.52;10.73;;;;;;;21.23;64.30;100373.97;5070481;28;20049;-82
2022/09/02 02:35:42;;;;;;;11.60;10.90;;;;;;;21.28;64.57;100365.22;5067268;28;20106;-82
2022/09/02 02:38:09;;;;;;;11.10;10.30;;;;;;;21.36;64.46;100374.81;5060942;28;20143;-83
2022/09/02 02:40:40;;;;;;;10.77;9.98;;;;;;;21.41;64.31;100386.78;5063512;28;20048;-83
2022/09/02 02:43:07;;;;;;;11.85;10.65;;;;;;;21.49;64.34;100394.31;5066279;28;20052;-84
2022/09/02 02:45:33;;;;;;;10.38;9.77;;;;;;;21.39;64.34;100386.31;5067103;28;20076;-84
2022/09/02 02:48:01;;;;;;;11.65;10.80;;;;;;;21.17;64.16;100347.03;5069532;28;20080;-83
2022/09/02 02:50:28;;;;;;;11.02;10.23;;;;;;;21.24;64.53;100379.31;5064830;28;20044;-84
2022/09/02 02:52:55;;;;;;;10.57;9.88;;;;;;;21.32;64.36;100388.88;5065028;28;20123;-83
2022/09/02 02:55:23;;;;;;;11.50;10.60;;;;;;;21.23;64.11;100369.16;5063338;28;20115;-82
2022/09/02 02:57:51;;;;;;;10.88;10.10;;;;;;;21.16;64.36;100362.41;5064632;28;20080;-82
2022/09/02 03:00:25;;;;;;;11.18;10.43;;;;;;;21.20;64.24;100380.41;5063643;28;20082;-82
2022/09/02 03:02:57;;;;;;;10.80;10.10;;;;;;;21.22;64.45;100378.84;5069916;28;20056;-82
2022/09/02 03:05:25;;;;;;;11.50;10.60;;;;;;;21.16;64.03;100373.75;5059119;28;20424;-83
2022/09/02 03:07:52;;;;;;;10.30;9.70;;;;;;;21.22;64.43;100383.69;5066146;28;20071;-83
2022/09/02 03:10:19;;;;;;;11.15;10.25;;;;;;;21.20;64.45;100380.41;5067698;28;20119;-83
2022/09/02 03:12:46;;;;;;;10.73;9.93;;;;;;;21.18;64.54;100382.75;5068923;28;20444;-83
2022/09/02 03:15:16;;;;;;;10.52;9.77;;;;;;;20.99;64.68;100347.28;5066375;28;20187;-83
2022/09/02 03:17:45;;;;;;;12.10;11.23;;;;;;;21.15;64.64;100378.59;5070872;28;20084;-84
2022/09/02 03:20:14;;;;;;;10.93;9.98;;;;;;;21.03;64.50;100353.91;5064579;28;20462;-83
2022/09/02 03:22:43;;;;;;;11.45;10.63;;;;;;;21.16;64.62;100376.59;5073400;28;20109;-82
2022/09/02 03:25:12;;;;;;;10.82;10.13;;;;;;;21.06;64.67;100352.38;5065655;28;20127;-83
2022/09/02 03:27:39;;;;;;;11.10;10.20;;;;;;;21.06;64.35;100347.53;5071309;28;20045;-82
2022/09/02 03:30:10;;;;;;;11.02;10.23;;;;;;;21.06;64.03;100358.88;5064655;28;20123;-83
2022/09/02 03:32:37;;;;;;;10.57;9.88;;;;;;;21.02;64.33;100366.44;5071224;28;20477;-83
2022/09/02 03:35:07;;;;;;;10.90;10.07;;;;;;;20.79;64.19;100343.41;5068938;28;20072;-82
2022/09/02 03:37:35;;;;;;;11.20;10.50;;;;;;;20.85;64.48;100352.47;5063877;28;20125;-82
2022/09/02 03:40:05;;;;;;;11.38;10.65;;;;;;;20.87;64.42;100364.31;5065465;28;20116;-82
2022/09/02 03:42:31;;;;;;;10.60;9.73;;;;;;;20.84;64.32;100373.53;5061402;28;20771;-83
2022/09/02 03:44:58;;;;;;;11.48;10.68;;;;;;;20.58;64.46;100335.00;5068145;28;20131;-83
2022/09/02 03:47:28;;;;;;;12.77;11.77;;;;;;;20.64;64.38;100352.59;5066145;28;20079;-85
2022/09/02 03:49:56;;;;;;;;;;;;;;;20.59;64.20;100362.19;5069437;28;20409;-85
2022/09/02 03:52:23;;;;;;;12.07;11.27;;;;;;;20.63;64.52;100361.47;5063725;28;20023;-84
2022/09/02 03:54:50;;;;;;;12.20;11.20;;;;;;;20.70;64.89;100367.38;5068097;28;20052;-87
2022/09/02 03:57:19;;;;;;;11.25;10.45;;;;;;;20.41;64.64;100315.34;5068688;28;20553;-88
2022/09/02 03:59:46;;;;;;;12.13;10.63;;;;;;;20.62;64.75;100343.63;5068546;28;20529;-87
2022/09/02 04:02:13;;;;;;;10.75;10.05;;;;;;;20.71;64.83;100355.66;5066492;28;20076;-86
2022/09/02 04:04:40;;;;;;;10.40;9.80;;;;;;;20.91;64.70;100368.09;5059557;28;20135;-84
2022/09/02 04:07:07;;;;;;;10.20;9.48;;;;;;;21.02;64.87;100374.94;5068205;28;20048;-85
2022/09/02 04:09:35;;;;;;;10.60;9.80;;;;;;;20.74;64.77;100345.63;5060965;28;20490;-85
2022/09/02 04:12:03;;;;;;;11.25;10.13;;;;;;;20.69;64.98;100348.72;5065177;28;20115;-84
2022/09/02 04:14:30;;;;;;;10.52;9.73;;;;;;;20.67;64.71;100368.91;5062261;28;20148;-84
2022/09/02 04:16:57;;;;;;;11.13;10.23;;;;;;;20.66;64.70;100378.63;5071935;28;20112;-84
2022/09/02 04:19:24;;;;;;;11.77;10.88;;;;;;;20.57;64.70;100370.19;5074839;28;20083;-85
2022/09/02 04:21:51;;;;;;;11.48;10.68;;;;;;;20.62;64.79;100383.34;5070538;28;20051;-86
2022/09/02 04:24:18;;;;;;;11.25;10.45;;;;;;;20.40;64.85;100358.22;5076302;28;20072;-86
2022/09/02 04:26:45;;;;;;;11.82;10.82;;;;;;;20.54;65.09;100375.75;5078544;28;20068;-84
2022/09/02 04:29:12;;;;;;;11.75;10.85;;;;;;;20.49;65.15;100378.81;5088658;28;20067;-82
2022/09/02 04:31:39;;;;;;;11.55;10.52;;;;;;;20.34;65.14;100351.94;5084582;28;20067;-84
2022/09/02 04:34:06;;;;;;;12.23;11.07;;;;;;;20.46;65.41;100362.47;5079559;28;20509;-81
2022/09/02 04:36:33;;;;;;;11.55;10.70;;;;;;;20.73;65.22;100378.03;5075993;28;20120;-84
2022/09/02 04:39:00;;;;;;;12.13;11.13;;;;;;;20.67;64.85;100377.44;5069982;28;20140;-83
2022/09/02 04:41:29;;;;;;;11.75;10.95;;;;;;;20.56;64.91;100368.56;5067402;28;20080;-83
2022/09/02 04:43:58;;;;;;;11.00;10.30;;;;;;;20.45;65.17;100353.16;5070695;28;20048;-83
2022/09/02 04:46:26;;;;;;;11.45;10.48;;;;;;;20.51;65.05;100371.63;5072794;28;20428;-83
2022/09/02 04:49:01;;;;;;;11.10;10.30;;;;;;;20.44;65.09;100367.66;5069299;28;20452;-82
2022/09/02 04:51:28;;;;;;;11.57;10.68;;;;;;;20.47;65.30;100376.31;5070334;28;20124;-83
2022/09/02 04:53:55;;;;;;;12.40;11.50;;;;;;;20.44;65.19;100359.97;5065793;28;20045;-84
2022/09/02 04:56:25;;;;;;;11.95;11.07;;;;;;;20.37;65.13;100362.56;5070644;28;20048;-84
2022/09/02 04:58:53;;;;;;;11.60;10.80;;;;;;;20.41;65.06;100369.22;5064742;28;20124;-83
2022/09/02 05:01:27;;;;;;;11.50;10.60;;;;;;;20.33;65.09;100372.97;5070686;28;20517;-84
2022/09/02 05:03:54;;;;;;;11.55;10.75;;;;;;;20.17;65.15;100343.63;5071165;28;20518;-83
2022/09/02 05:06:27;;;;;;;12.65;11.65;;;;;;;20.33;65.40;100365.28;5072065;28;20076;-83
2022/09/02 05:08:55;;;;;;;12.60;11.55;;;;;;;20.33;65.18;100372.97;5079458;28;20484;-82
2022/09/02 05:11:28;;;;;;;13.98;12.73;;;;;;;20.22;65.27;100357.59;5070291;28;20131;-82
2022/09/02 05:13:57;;;;;;;13.55;12.45;;;;;;;20.06;65.52;100324.22;5067544;28;20144;-82
2022/09/02 05:16:28;;;;;;;13.10;12.10;;;;;;;20.27;65.55;100354.50;5069639;28;20044;-81
2022/09/02 05:18:56;;;;;;;12.82;11.90;;;;;;;20.24;65.37;100355.22;5065545;28;20132;-82
2022/09/02 05:21:23;;;;;;;12.27;11.18;;;;;;;20.29;65.31;100374.84;5067325;28;20139;-84
2022/09/02 05:24:09;;;;;;;12.60;11.60;;;;;;;20.14;65.37;100348.00;5071771;28;20417;-83
2022/09/02 05:49:16;;;;;;;12.82;11.93;;;;;;;19.97;65.57;100371.69;4899130;29;20056;-83
2022/09/02 06:00:39;;;;;;;13.65;12.63;;;;;;;19.89;65.49;100375.41;4907052;29;20125;-76
2022/09/02 06:03:30;;;;;;;15.98;14.73;;;;;;;19.69;65.64;100367.75;5014987;28;20056;-78
2022/09/02 06:05:57;;;;;;;15.15;13.95;;;;;;;19.84;65.66;100382.13;5068155;28;20408;-79
2022/09/02 06:08:32;;;;;;;14.43;13.27;;;;;;;19.78;65.71;100375.03;5069563;28;20048;-76
2022/09/02 06:11:01;;;;;;;15.00;13.73;;;;;;;19.77;66.02;100372.53;5057784;28;20123;-75
2022/09/02 06:13:33;;;;;;;14.43;13.32;;;;;;;19.96;65.87;100389.03;5058217;28;20052;-76
2022/09/02 06:16:00;;;;;;;14.52;13.38;;;;;;;20.01;66.00;100394.50;5062393;28;20052;-75
2022/09/02 06:18:28;;;;;;;14.98;13.88;;;;;;;19.94;66.03;100371.56;5069176;28;20078;-79
2022/09/02 06:20:55;;;;;;;15.65;14.43;;;;;;;19.96;66.16;100364.34;5063221;28;20068;-75
2022/09/02 06:23:22;;;;;;;15.30;14.00;;;;;;;20.17;66.16;100391.81;5055197;28;20052;-74
2022/09/02 06:25:49;;;;;;;15.45;13.88;;;;;;;20.28;65.84;100396.72;5063715;28;20155;-75
2022/09/02 06:28:16;;;;;;;15.43;14.02;;;;;;;20.10;65.92;100364.03;5070280;28;20131;-76
2022/09/02 06:30:44;;;;;;;14.90;13.90;;;;;;;20.30;65.81;100382.16;5066931;28;20143;-72
2022/09/02 06:33:11;;;;;;;16.23;14.68;;;;;;;19.98;65.89;100347.81;5063937;28;20067;-76
2022/09/02 06:35:41;;;;;;;15.25;14.15;;;;;;;20.30;65.87;100387.84;5065964;28;20083;-76
2022/09/02 06:38:09;;;;;;;;;;;;;;;20.17;66.01;100400.31;5060729;28;20135;-77
2022/09/02 06:40:45;;;;;;;17.15;14.77;;;;;;;20.21;65.69;100395.63;5060306;28;19999;-72
2022/09/02 06:43:12;;;;;;;16.90;15.50;;;;;;;20.30;65.47;100413.38;5065838;28;20570;-72
2022/09/02 06:45:40;;;;;;;16.40;15.02;;;;;;;20.30;65.57;100411.34;5059867;28;20064;-73
2022/09/02 06:48:08;;;;;;;18.48;16.92;;;;;;;20.15;65.67;100392.19;5061976;28;20131;-72
2022/09/02 06:50:41;;;;;;;16.27;14.68;;;;;;;20.30;65.33;100416.19;5057185;28;20569;-72
2022/09/02 06:53:10;;;;;;;15.82;14.52;;;;;;;20.25;65.46;100414.44;5081143;28;20575;-72
2022/09/02 06:55:40;;;;;;;15.65;14.40;;;;;;;20.33;65.08;100424.00;5066957;28;20083;-71
2022/09/02 06:58:06;;;;;;;17.17;15.93;;;;;;;20.24;65.30;100415.63;5058979;28;20051;-72
2022/09/02 07:00:34;;;;;;;14.90;13.70;;;;;;;20.22;64.90;100411.47;5059619;28;20055;-75
2022/09/02 07:06:10;;;;;;;14.68;13.55;;;;;;;20.26;65.24;100427.41;5066055;28;20052;-73
2022/09/02 07:08:39;;;;;;;14.57;13.18;;;;;;;19.98;65.20;100381.84;5064640;28;20076;-75
2022/09/02 07:11:13;;;;;;;17.27;14.27;;;;;;;20.38;64.96;100446.50;5068244;28;20058;-75
2022/09/02 07:13:40;;;;;;;16.88;14.82;;;;;;;20.39;64.91;100453.81;5070334;28;20065;-73
2022/09/02 07:16:07;;;;;;;16.52;15.02;;;;;;;20.45;65.10;100449.59;5070385;28;20135;-76
2022/09/02 07:18:35;;;;;;;15.95;14.43;;;;;;;20.40;64.96;100443.28;5058733;28;20056;-76
2022/09/02 07:21:02;;;;;;;15.93;14.30;;;;;;;20.50;64.90;100449.38;5083622;28;20062;-76
2022/09/02 07:23:30;;;;;;;16.83;15.15;;;;;;;20.61;65.02;100449.75;5072538;28;20131;-76
2022/09/02 07:25:57;;;;;;;18.27;16.45;;;;;;;20.80;64.23;100441.53;5070619;28;20135;-78
2022/09/02 07:28:25;;;;;;;17.17;15.48;;;;;;;20.98;63.84;100447.81;5070573;28;20356;-81
2022/09/02 07:30:54;;;;;;;18.15;16.10;;;;;;;21.02;63.99;100445.91;5063077;28;20048;-86
2022/09/02 07:33:25;;;;;;;15.75;14.25;;;;;;;21.10;63.59;100457.53;5070396;28;20084;-89
2022/09/02 07:35:52;;;;;;;17.15;15.70;;;;;;;21.00;63.67;100428.44;5069663;28;20564;-87
2022/09/02 07:38:19;;;;;;;18.75;17.15;;;;;;;21.20;63.38;100451.41;5069713;28;20084;-87
2022/09/02 07:40:47;;;;;;;18.15;16.23;;;;;;;21.15;63.27;100428.91;5051632;28;20487;-88
2022/09/02 07:43:14;;;;;;;15.15;13.77;;;;;;;21.25;63.24;100445.47;5067886;28;20072;-87
2022/09/02 07:45:42;;;;;;;16.52;14.65;;;;;;;21.26;62.96;100432.91;5063258;28;20053;-88
2022/09/02 07:48:09;;;;;;;16.25;14.95;;;;;;;21.36;62.87;100435.31;5063925;28;20127;-88
2022/09/02 07:50:37;;;;;;;15.77;14.35;;;;;;;21.56;62.88;100441.22;5068444;28;20671;-89
2022/09/02 07:53:05;;;;;;;14.27;13.00;;;;;;;21.62;62.59;100442.63;5069904;28;20131;-89
2022/09/02 07:55:35;;;;;;;15.90;14.38;;;;;;;21.80;62.61;100438.31;5063992;28;20141;-87
2022/09/02 07:58:03;;;;;;;15.50;14.10;;;;;;;22.04;62.17;100454.47;5065582;28;20058;-88
2022/09/02 08:00:31;;;;;;;15.05;13.73;;;;;;;22.07;61.74;100436.69;5063743;28;20052;-86
2022/09/02 08:02:58;;;;;;;15.15;13.82;;;;;;;22.34;61.78;100463.50;5054683;28;20080;-83
2022/09/02 08:05:27;;;;;;;15.90;14.50;;;;;;;22.36;61.41;100438.38;5039073;28;20051;-86
2022/09/02 08:07:53;;;;;;;14.18;12.90;;;;;;;22.67;61.25;100448.16;5070710;28;20595;-90
2022/09/02 08:10:22;;;;;;;14.50;13.00;;;;;;;22.89;60.33;100439.00;5060582;28;20055;-83
2022/09/02 08:12:50;;;;;;;14.13;12.73;;;;;;;23.17;60.04;100446.63;5066526;28;20133;-83
2022/09/02 08:15:19;;;;;;;13.07;11.95;;;;;;;23.85;59.56;100463.34;5065589;28;20135;-80
2022/09/02 08:17:47;;;;;;;12.52;11.55;;;;;;;23.95;58.31;100427.72;5062800;28;20059;-76
2022/09/02 08:20:16;;;;;;;12.70;11.60;;;;;;;24.16;58.56;100443.63;5069838;28;20181;-79
2022/09/02 08:22:43;;;;;;;13.73;12.57;;;;;;;24.33;57.59;100449.72;5069864;28;20127;-79
2022/09/02 08:25:21;;;;;;;11.88;10.88;;;;;;;24.89;57.15;100444.66;5067615;28;20056;-78
2022/09/02 08:27:48;;;;;;;12.85;11.85;;;;;;;25.45;56.31;100469.75;5061531;28;20889;-79
2022/09/02 08:30:15;;;;;;;12.68;11.50;;;;;;;25.51;55.79;100460.47;5062849;28;20052;-80
2022/09/02 08:32:42;;;;;;;12.43;11.32;;;;;;;25.93;55.01;100450.06;5062341;28;20055;-86
2022/09/02 08:35:09;;;;;;;13.48;12.27;;;;;;;26.73;54.07;100444.09;5067375;28;20106;-83
2022/09/02 08:37:36;;;;;;;14.95;12.80;;;;;;;27.60;52.37;100455.94;5067254;28;20076;-81
2022/09/02 08:40:07;;;;;;;13.40;12.20;;;;;;;28.26;51.01;100453.06;5067145;28;20076;-80
2022/09/02 08:42:52;;;;;;;12.00;11.10;;;;;;;28.74;50.68;100453.66;5066171;28;20408;-79
2022/09/02 08:45:37;;;;;;;12.63;11.73;;;;;;;28.90;49.48;100482.00;5063669;28;20096;-78
2022/09/02 08:48:20;;;;;;;12.30;11.32;;;;;;;28.93;50.05;100457.38;5066398;28;20051;-81
2022/09/02 08:50:51;;;;;;;12.95;11.90;;;;;;;28.79;48.96;100456.13;5070915;28;20065;-84
2022/09/02 08:53:34;;;;;;;12.55;11.52;;;;;;;28.96;49.14;100471.75;5069528;28;20131;-81
2022/09/02 08:56:04;;;;;;;12.38;11.48;;;;;;;28.39;49.06;100442.06;5069804;28;20140;-84
2022/09/02 08:58:42;;;;;;;13.50;12.30;;;;;;;27.72;49.66;100464.22;5077089;28;20067;-81
2022/09/02 09:01:38;;;;;;;12.07;11.17;;;;;;;27.24;50.02;100466.31;5068653;28;20128;-80
2022/09/02 09:04:11;;;;;;;11.98;11.10;;;;;;;27.07;50.50;100488.66;5056538;28;20095;-83
2022/09/02 09:06:47;;;;;;;10.88;10.07;;;;;;;27.65;49.68;100481.38;5068449;28;20517;-82
2022/09/02 09:09:25;;;;;;;10.70;10.00;;;;;;;28.31;48.33;100478.53;5071576;28;20115;-83
2022/09/02 09:12:06;;;;;;;10.05;9.40;;;;;;;29.01;47.51;100468.50;5069019;28;20100;-81
2022/09/02 09:14:54;;;;;;;10.93;10.20;;;;;;;29.73;46.41;100469.34;5073988;28;20076;-88
2022/09/02 09:17:30;;;;;;;11.15;10.27;;;;;;;30.32;45.50;100473.72;5084241;28;20053;-84
2022/09/02 09:20:04;;;;;;;10.05;9.45;;;;;;;30.67;44.22;100475.63;5082864;28;20048;-89
2022/09/02 09:22:37;;;;;;;10.20;9.35;;;;;;;31.10;43.50;100466.72;5067016;28;20134;-84
2022/09/02 09:25:11;;;;;;;10.00;9.30;;;;;;;31.42;43.37;100471.41;5067613;28;20048;-88
2022/09/02 09:27:37;;;;;;;11.40;10.60;;;;;;;31.65;42.53;100465.84;5072382;28;20127;-90
2022/09/02 09:30:07;;;;;;;11.80;10.65;;;;;;;31.88;41.57;100465.22;5070942;28;20127;-89
2022/09/02 09:32:45;;;;;;;10.82;10.13;;;;;;;32.03;40.93;100445.66;5068483;28;20060;-89
2022/09/02 09:35:16;;;;;;;10.50;9.90;;;;;;;31.76;40.86;100445.50;5075055;28;20087;-84
2022/09/02 09:37:46;;;;;;;9.77;9.27;;;;;;;31.27;41.40;100465.75;5074463;28;20055;-86
2022/09/02 09:40:16;;;;;;;11.55;10.70;;;;;;;30.71;42.41;100462.00;5074578;28;20123;-88
2022/09/02 09:42:44;;;;;;;10.45;9.95;;;;;;;30.81;41.66;100455.38;5075771;28;20052;-88
2022/09/02 09:45:26;;;;;;;14.00;12.98;;;;;;;31.01;41.56;100463.47;5068066;28;20511;-86
2022/09/02 09:48:35;;;;;;;10.20;9.60;;;;;;;31.29;41.07;100454.59;5056682;28;20128;-85
2022/09/02 09:51:02;;;;;;;10.90;10.10;;;;;;;31.33;41.03;100469.03;5060280;28;20139;-76
2022/09/02 09:53:32;;;;;;;10.88;10.18;;;;;;;31.78;40.00;100460.34;5063790;28;20523;-81
2022/09/02 09:56:04;;;;;;;9.85;9.15;;;;;;;32.23;39.47;100454.50;5060288;28;20092;-74
2022/09/02 09:58:33;;;;;;;10.45;9.73;;;;;;;32.64;38.86;100474.63;5064403;28;20183;-80
2022/09/02 10:01:27;;;;;;;10.30;9.73;;;;;;;32.98;38.72;100444.84;5067880;28;20084;-74
2022/09/02 10:03:56;;;;;;;10.18;9.45;;;;;;;32.67;38.36;100464.28;5060868;28;20120;-77
2022/09/02 10:06:36;;;;;;;10.02;9.23;;;;;;;31.82;38.88;100456.16;5063427;28;20123;-79
2022/09/02 10:09:30;;;;;;;11.57;10.75;;;;;;;31.11;40.58;100462.56;5058519;28;20131;-78
2022/09/02 10:12:12;;;;;;;11.25;10.57;;;;;;;30.59;40.60;100430.78;5065881;28;20041;-77
2022/09/02 10:14:44;;;;;;;11.05;10.32;;;;;;;30.35;40.87;100456.41;5062232;28;20060;-79
2022/09/02 10:17:39;;;;;;;10.77;9.93;;;;;;;30.29;40.77;100445.75;5060935;28;20106;-76
2022/09/02 10:20:17;;;;;;;10.90;10.18;;;;;;;30.78;39.98;100456.22;5068714;28;20044;-74
2022/09/02 10:22:53;;;;;;;10.95;10.13;;;;;;;31.01;39.59;100470.09;5071205;28;20045;-76
2022/09/02 10:25:31;;;;;;;13.38;12.52;;;;;;;31.34;39.33;100453.34;5073826;28;20052;-77
2022/09/02 10:28:25;;;;;;;9.75;9.15;;;;;;;31.81;38.57;100460.31;5067792;28;20191;-75
2022/09/02 10:31:04;;;;;;;11.15;10.48;;;;;;;32.30;38.56;100455.22;5057820;28;20129;-76
2022/09/02 10:33:59;;;;;;;11.02;10.35;;;;;;;32.61;37.38;100437.09;5062463;28;20048;-79
2022/09/02 10:36:53;;;;;;;11.88;11.18;;;;;;;33.13;37.08;100457.81;5057088;28;20106;-78
2022/09/02 10:39:48;;;;;;;12.68;11.75;;;;;;;33.40;36.85;100436.69;5064829;28;20080;-79
2022/09/02 10:42:44;;;;;;;10.52;9.95;;;;;;;33.49;36.17;100445.66;5058164;28;20461;-81
2022/09/02 10:45:20;;;;;;;10.52;10.02;;;;;;;33.86;35.61;100443.72;5052695;28;20136;-78
2022/09/02 10:47:52;;;;;;;10.38;9.77;;;;;;;34.13;35.33;100435.75;5068491;28;20053;-79
2022/09/02 10:50:32;;;;;;;12.85;12.02;;;;;;;34.17;34.90;100418.28;5061535;28;20508;-73
2022/09/02 10:53:14;;;;;;;10.52;9.90;;;;;;;34.43;35.08;100431.00;5063893;28;20148;-78
2022/09/02 10:55:57;;;;;;;11.30;10.60;;;;;;;34.73;34.07;100440.69;5062888;28;20524;-80
2022/09/02 10:58:47;;;;;;;12.10;11.48;;;;;;;34.78;34.58;100422.75;5066205;28;20047;-76
2022/09/02 11:01:40;;;;;;;11.00;10.30;;;;;;;34.35;34.24;100418.72;5057524;28;20080;-75
2022/09/02 11:04:15;;;;;;;12.07;11.38;;;;;;;34.51;34.17;100400.59;5061833;28;20053;-81
2022/09/02 11:06:50;;;;;;;11.10;10.50;;;;;;;35.11;32.83;100407.03;5063570;28;20063;-81
2022/09/02 11:09:28;;;;;;;10.65;9.82;;;;;;;35.01;32.49;100413.94;5059533;28;20050;-76
2022/09/02 11:12:06;;;;;;;10.82;10.13;;;;;;;33.97;33.82;100406.66;5061696;28;20097;-78
2022/09/02 11:14:45;;;;;;;10.50;9.80;;;;;;;32.99;34.99;100398.13;5059029;28;21963;-85
2022/09/02 11:17:55;;;;;;;10.98;10.25;;;;;;;32.07;36.52;100394.47;5065433;28;20056;-82
2022/09/02 11:20:43;;;;;;;11.65;10.93;;;;;;;31.52;37.15;100404.13;5054389;28;20120;-86
2022/09/02 11:23:41;;;;;;;11.70;11.00;;;;;;;31.07;37.33;100398.34;5068086;28;20473;-81
2022/09/02 11:26:39;;;;;;;12.75;11.80;;;;;;;30.64;37.91;100393.69;5062930;28;20048;-80
2022/09/02 11:29:13;;;;;;;15.55;14.55;;;;;;;30.82;38.28;100405.13;5062651;28;20060;-87
2022/09/02 11:31:56;;;;;;;11.57;10.70;;;;;;;30.55;38.84;100378.09;5058423;28;20072;-75
2022/09/02 11:34:35;;;;;;;12.95;12.00;;;;;;;30.65;39.08;100400.28;5062079;28;20098;-78
2022/09/02 11:37:09;;;;;;;13.10;12.38;;;;;;;31.32;38.75;100396.09;5066016;28;20083;-86
2022/09/02 11:39:52;;;;;;;11.38;10.63;;;;;;;31.80;37.89;100403.81;5070050;28;20056;-85
2022/09/02 11:42:51;;;;;;;10.35;9.75;;;;;;;32.27;37.14;100395.41;5064610;28;20493;-80
2022/09/02 11:45:42;;;;;;;10.93;10.23;;;;;;;32.60;36.78;100392.09;5072720;28;20048;-84
2022/09/02 11:48:44;;;;;;;10.40;9.70;;;;;;;33.34;36.24;100397.94;5063476;28;20071;-83
2022/09/02 11:51:29;;;;;;;11.00;10.27;;;;;;;34.18;34.78;100406.25;5065376;28;20127;-83
2022/09/02 11:54:02;;;;;;;10.70;9.70;;;;;;;34.53;33.72;100354.56;5061046;28;20501;-81
2022/09/02 11:56:38;;;;;;;10.82;10.20;;;;;;;35.18;33.06;100382.81;5068370;28;20060;-82
2022/09/02 11:59:06;;;;;;;12.10;11.23;;;;;;;35.33;32.14;100391.97;5065520;28;20569;-82
2022/09/02 12:01:49;;;;;;;9.88;9.32;;;;;;;36.01;31.28;100396.75;5068599;28;20123;-84
2022/09/02 12:04:17;;;;;;;10.50;9.90;;;;;;;35.62;31.70;100411.53;5065437;28;20072;-78
2022/09/02 12:07:07;;;;;;;9.60;8.90;;;;;;;35.99;31.54;100404.25;5073032;28;20416;-79
2022/09/02 12:09:41;;;;;;;10.60;9.90;;;;;;;36.59;30.36;100403.75;5068576;28;20055;-79